createdAt,value
2022-09-11T00:01:47.586Z,96.52
2022-09-11T00:04:22.930Z,97.09
2022-09-11T00:06:53.190Z,97.43
2022-09-11T00:09:20.874Z,97.17
2022-09-11T00:11:55.751Z,96.94
2022-09-11T00:14:32.163Z,96.71
2022-09-11T00:17:01.583Z,96.68
2022-09-11T00:19:51.145Z,97.01
2022-09-11T00:22:43.678Z,97.67
2022-09-11T00:25:11.227Z,97.50
2022-09-11T00:27:47.017Z,97.70
2022-09-11T00:30:25.034Z,97.62
2022-09-11T00:32:54.721Z,97.08
2022-09-11T00:35:24.611Z,96.90
2022-09-11T00:37:53.915Z,96.89
2022-09-11T00:40:29.679Z,97.06
2022-09-11T00:43:02.886Z,97.51
2022-09-11T00:45:32.532Z,97.45
2022-09-11T00:48:18.707Z,96.98
2022-09-11T00:50:52.100Z,96.87
2022-09-11T00:53:29.327Z,97.26
2022-09-11T00:56:01.904Z,97.09
2022-09-11T01:01:14.722Z,97.13
2022-09-11T01:04:00.858Z,96.68
2022-09-11T01:06:41.910Z,96.61
2022-09-11T01:09:13.691Z,97.29
2022-09-11T01:12:07.077Z,96.69
2022-09-11T01:14:54.368Z,96.50
2022-09-11T01:17:32.773Z,96.80
2022-09-11T01:20:38.376Z,97.26
2022-09-11T01:23:12.564Z,96.88
2022-09-11T01:26:15.395Z,96.72
2022-09-11T01:29:06.839Z,96.35
2022-09-11T01:32:19.328Z,96.40
2022-09-11T01:38:23.325Z,96.15
2022-09-11T01:40:59.558Z,96.19
2022-09-11T01:43:34.788Z,97.26
2022-09-11T01:49:03.051Z,97.06
2022-09-11T01:54:51.059Z,96.47
2022-09-11T01:58:02.202Z,96.04
2022-09-11T02:00:40.037Z,96.80
2022-09-11T02:03:39.976Z,96.92
2022-09-11T02:06:18.526Z,96.62
2022-09-11T02:08:55.283Z,95.93
2022-09-11T02:12:20.086Z,96.56
2022-09-11T02:14:50.680Z,97.00
2022-09-11T02:17:37.285Z,96.89
2022-09-11T02:20:15.444Z,95.92
2022-09-11T02:22:43.253Z,95.65
2022-09-11T02:25:42.775Z,96.22
2022-09-11T02:28:23.831Z,96.04
2022-09-11T02:30:59.619Z,96.56
2022-09-11T02:33:48.771Z,96.31
2022-09-11T02:36:30.019Z,96.82
2022-09-11T02:39:27.258Z,96.55
2022-09-11T02:42:31.565Z,96.22
2022-09-11T02:45:31.970Z,96.58
2022-09-11T02:48:38.165Z,96.49
2022-09-11T02:51:36.755Z,97.09
2022-09-11T02:54:39.258Z,96.73
2022-09-11T02:57:27.291Z,97.08
2022-09-11T03:03:11.975Z,98.26
2022-09-11T03:05:50.869Z,97.68
2022-09-11T03:08:49.886Z,97.84
2022-09-11T03:11:25.469Z,98.23
2022-09-11T03:14:03.060Z,97.50
2022-09-11T03:16:30.174Z,97.43
2022-09-11T03:21:55.244Z,98.12
2022-09-11T03:24:28.565Z,97.53
2022-09-11T03:26:55.794Z,97.64
2022-09-11T03:29:32.757Z,97.68
2022-09-11T03:32:06.909Z,97.45
2022-09-11T03:34:46.852Z,97.67
2022-09-11T03:37:41.385Z,98.36
2022-09-11T03:40:39.352Z,97.74
2022-09-11T03:43:23.972Z,97.40
2022-09-11T03:46:02.449Z,97.53
2022-09-11T03:48:47.974Z,97.35
2022-09-11T03:51:15.978Z,97.24
2022-09-11T03:53:46.580Z,97.23
2022-09-11T03:56:29.465Z,97.11
2022-09-11T03:59:06.073Z,96.80
2022-09-11T04:01:32.840Z,97.39
2022-09-11T04:04:00.105Z,96.46
2022-09-11T04:12:13.205Z,96.03
2022-09-11T04:14:46.638Z,96.25
2022-09-11T04:17:53.466Z,96.61
2022-09-11T04:20:20.016Z,96.38
2022-09-11T04:22:46.672Z,96.38
2022-09-11T04:25:17.001Z,96.82
2022-09-11T04:27:49.781Z,97.42
2022-09-11T04:30:16.709Z,97.08
2022-09-11T04:32:49.709Z,97.11
2022-09-11T04:35:20.539Z,97.41
2022-09-11T04:37:58.572Z,97.58
2022-09-11T04:40:34.208Z,97.50
2022-09-11T04:43:24.074Z,97.01
2022-09-11T04:46:01.845Z,96.79
2022-09-11T04:48:34.186Z,97.22
2022-09-11T04:51:10.917Z,97.35
2022-09-11T04:53:38.101Z,97.78
2022-09-11T04:56:07.648Z,97.51
2022-09-11T04:58:36.492Z,98.25
2022-09-11T05:01:11.318Z,98.17
2022-09-11T05:03:38.073Z,98.23
2022-09-11T05:06:06.412Z,97.61
2022-09-11T05:08:33.999Z,97.97
2022-09-11T05:11:01.404Z,96.89
2022-09-11T05:13:36.084Z,96.59
2022-09-11T05:16:04.429Z,96.71
2022-09-11T05:18:50.516Z,96.37
2022-09-11T05:21:18.343Z,96.42
2022-09-11T05:23:48.824Z,97.10
2022-09-11T05:26:23.612Z,96.99
2022-09-11T05:29:05.280Z,96.85
2022-09-11T05:31:40.876Z,97.15
2022-09-11T05:34:19.214Z,97.41
2022-09-11T05:36:52.523Z,97.15
2022-09-11T05:39:24.916Z,96.73
2022-09-11T05:41:59.956Z,96.82
2022-09-11T05:44:40.584Z,96.42
2022-09-11T05:47:07.693Z,96.42
2022-09-11T05:49:39.846Z,96.38
2022-09-11T05:52:11.874Z,97.11
2022-09-11T05:55:01.370Z,96.99
2022-09-11T05:57:54.277Z,96.57
2022-09-11T06:00:32.846Z,96.66
2022-09-11T06:03:07.562Z,96.57
2022-09-11T06:05:48.487Z,96.27
2022-09-11T06:08:25.505Z,96.18
2022-09-11T06:11:10.064Z,96.58
2022-09-11T06:13:39.764Z,96.71
2022-09-11T06:16:43.399Z,97.30
2022-09-11T06:19:18.544Z,96.40
2022-09-11T06:21:53.874Z,98.24
2022-09-11T06:24:39.815Z,98.34
2022-09-11T06:27:06.663Z,97.19
2022-09-11T06:29:36.807Z,97.66
2022-09-11T06:32:06.001Z,97.28
2022-09-11T06:34:53.918Z,96.83
2022-09-11T06:37:58.250Z,97.20
2022-09-11T06:51:02.480Z,95.59
2022-09-11T06:57:00.209Z,95.49
2022-09-11T06:59:37.636Z,95.23
2022-09-11T07:10:56.262Z,94.55
2022-09-11T07:13:24.589Z,95.44
2022-09-11T07:16:03.104Z,95.05
2022-09-11T07:18:39.849Z,95.08
2022-09-11T07:21:11.558Z,94.76
2022-09-11T07:35:20.480Z,93.20
2022-09-11T07:41:38.326Z,93.89
2022-09-11T07:47:48.704Z,92.09
2022-09-11T07:59:09.739Z,90.99
2022-09-11T08:01:51.654Z,90.41
2022-09-11T08:04:18.390Z,90.33
2022-09-11T08:06:51.190Z,90.25
2022-09-11T08:09:20.380Z,89.96
2022-09-11T08:11:49.254Z,89.24
2022-09-11T08:14:21.597Z,88.34
2022-09-11T08:16:54.094Z,87.22
2022-09-11T08:19:28.893Z,86.52
2022-09-11T08:22:02.637Z,84.92
2022-09-11T08:24:38.589Z,87.19
2022-09-11T08:27:08.756Z,84.52
2022-09-11T08:29:45.383Z,83.71
2022-09-11T08:32:19.463Z,83.78
2022-09-11T08:34:51.576Z,85.10
2022-09-11T08:37:18.729Z,83.94
2022-09-11T08:39:50.783Z,83.97
2022-09-11T08:42:18.454Z,84.55
2022-09-11T08:44:53.693Z,85.26
2022-09-11T08:47:29.738Z,83.05
2022-09-11T08:50:12.563Z,83.10
2022-09-11T08:52:45.794Z,84.21
2022-09-11T08:55:14.221Z,83.90
2022-09-11T08:58:00.753Z,83.31
2022-09-11T09:00:48.710Z,83.63
2022-09-11T09:04:21.359Z,84.28
2022-09-11T09:07:32.640Z,84.55
2022-09-11T09:10:38.643Z,85.01
2022-09-11T09:19:19.615Z,84.05
2022-09-11T09:22:02.846Z,84.03
2022-09-11T09:25:11.516Z,84.60
2022-09-11T09:29:02.362Z,83.43
2022-09-11T09:31:56.004Z,82.39
2022-09-11T09:39:22.004Z,83.07
2022-09-11T09:42:24.243Z,82.69
2022-09-11T12:43:48.264Z,67.20
2022-09-11T12:46:27.596Z,64.42
2022-09-11T12:49:20.232Z,65.78
2022-09-11T12:51:51.182Z,63.33
2022-09-11T12:54:18.331Z,62.34
2022-09-11T12:56:51.585Z,66.28
2022-09-11T12:59:38.334Z,66.21
2022-09-11T13:02:26.938Z,63.86
2022-09-11T13:04:54.989Z,64.97
2022-09-11T13:07:41.070Z,63.04
2022-09-11T13:10:33.495Z,63.27
2022-09-11T13:13:02.550Z,61.54
2022-09-11T13:15:40.977Z,63.24
2022-09-11T13:18:25.952Z,62.52
2022-09-11T13:21:01.859Z,62.93
2022-09-11T13:23:28.804Z,62.08
2022-09-11T13:25:56.341Z,59.32
2022-09-11T13:28:27.106Z,59.12
2022-09-11T13:31:02.257Z,61.86
2022-09-11T13:33:32.171Z,63.78
2022-09-11T13:36:03.727Z,59.75
2022-09-11T13:38:34.253Z,57.95
2022-09-11T13:41:08.869Z,58.22
2022-09-11T13:43:44.576Z,60.14
2022-09-11T13:46:15.764Z,59.71
2022-09-11T13:48:43.788Z,58.86
2022-09-11T13:51:22.251Z,56.73
2022-09-11T13:54:05.729Z,56.33
2022-09-11T13:56:51.514Z,55.52
2022-09-11T13:59:38.704Z,56.03
2022-09-11T14:02:32.368Z,55.36
2022-09-11T14:05:22.669Z,53.29
2022-09-11T14:08:28.665Z,54.14
2022-09-11T14:11:07.094Z,53.47
2022-09-11T14:13:50.788Z,57.04
2022-09-11T14:16:24.509Z,55.28
2022-09-11T14:19:07.290Z,54.16
2022-09-11T14:21:37.078Z,54.35
2022-09-11T14:24:07.189Z,56.25
2022-09-11T14:26:36.586Z,54.28
2022-09-11T14:29:03.074Z,58.07
2022-09-11T14:31:44.144Z,54.84
2022-09-11T14:34:20.817Z,55.51
2022-09-11T14:36:52.827Z,55.43
2022-09-11T14:39:38.907Z,55.48
2022-09-11T14:42:12.161Z,54.56
2022-09-11T14:44:40.306Z,55.83
2022-09-11T14:47:09.212Z,57.01
2022-09-11T14:49:38.812Z,55.47
2022-09-11T14:54:33.006Z,55.49
2022-09-11T14:57:00.573Z,55.17
2022-09-11T14:59:29.231Z,54.87
2022-09-11T15:01:58.435Z,52.80
2022-09-11T15:04:24.924Z,54.72
2022-09-11T15:06:55.526Z,53.85
2022-09-11T15:09:25.629Z,54.95
2022-09-11T15:11:52.447Z,55.89
2022-09-11T15:14:38.204Z,54.54
2022-09-11T15:17:10.337Z,52.52
2022-09-11T15:19:38.172Z,54.06
2022-09-11T15:22:05.971Z,54.84
2022-09-11T15:24:32.830Z,53.99
2022-09-11T15:26:59.300Z,54.67
2022-09-11T15:29:30.783Z,54.63
2022-09-11T15:31:58.632Z,55.35
2022-09-11T15:34:26.189Z,53.91
2022-09-11T15:36:52.742Z,54.65
2022-09-11T15:39:21.170Z,52.99
2022-09-11T15:41:48.188Z,53.51
2022-09-11T15:44:20.117Z,54.07
2022-09-11T15:46:52.116Z,53.79
2022-09-11T15:49:22.044Z,54.75
2022-09-11T15:51:49.554Z,55.49
2022-09-11T15:54:16.403Z,55.72
2022-09-11T15:56:43.367Z,55.05
2022-09-11T15:59:11.749Z,55.19
2022-09-11T16:01:39.740Z,55.11
2022-09-11T16:04:10.842Z,57.30
2022-09-11T16:06:45.412Z,56.46
2022-09-11T16:09:19.007Z,55.58
2022-09-11T16:11:47.813Z,55.26
2022-09-11T16:14:23.349Z,53.48
2022-09-11T16:16:50.838Z,55.30
2022-09-11T16:19:21.614Z,54.72
2022-09-11T16:21:49.086Z,55.09
2022-09-11T16:24:16.253Z,55.99
2022-09-11T16:26:44.188Z,56.87
2022-09-11T16:29:13.861Z,55.24
2022-09-11T16:31:40.855Z,57.01
2022-09-11T16:34:07.812Z,57.22
2022-09-11T16:36:41.937Z,58.35
2022-09-11T16:39:10.611Z,58.40
2022-09-11T16:41:43.796Z,57.77
2022-09-11T16:44:14.909Z,59.01
2022-09-11T16:46:42.370Z,58.06
2022-09-11T16:49:19.282Z,58.99
2022-09-11T16:51:50.004Z,60.10
2022-09-11T16:54:22.940Z,60.29
2022-09-11T16:56:52.236Z,60.34
2022-09-11T16:59:19.947Z,60.67
2022-09-11T17:01:46.679Z,60.90
2022-09-11T17:04:16.454Z,61.43
2022-09-11T17:06:47.346Z,61.73
2022-09-11T17:09:14.029Z,61.94
2022-09-11T17:11:48.308Z,63.04
2022-09-11T17:14:24.116Z,63.01
2022-09-11T17:16:54.821Z,64.55
2022-09-11T17:19:35.267Z,64.96
2022-09-11T17:22:02.094Z,66.03
2022-09-11T17:24:28.655Z,65.61
2022-09-11T17:26:56.934Z,66.04
2022-09-11T17:29:27.392Z,66.25
2022-09-11T17:32:16.859Z,67.38
2022-09-11T17:34:43.815Z,67.42
2022-09-11T17:37:13.760Z,67.74
2022-09-11T17:39:42.591Z,68.02
2022-09-11T17:42:13.141Z,68.52
2022-09-11T17:44:41.395Z,69.29
2022-09-11T17:47:16.574Z,68.66
2022-09-11T17:49:43.332Z,69.07
2022-09-11T17:52:14.023Z,69.36
2022-09-11T17:54:40.505Z,69.81
2022-09-11T17:57:06.994Z,70.26
2022-09-11T17:59:33.590Z,71.11
2022-09-11T18:02:02.519Z,71.48
2022-09-11T18:04:29.167Z,71.09
2022-09-11T18:06:55.857Z,71.59
2022-09-11T18:09:22.726Z,71.81
2022-09-11T18:11:54.600Z,72.44
2022-09-11T18:14:21.652Z,72.14
2022-09-11T18:16:50.494Z,72.05
2022-09-11T18:19:20.415Z,72.19
2022-09-11T18:21:50.783Z,72.22
2022-09-11T18:24:21.193Z,72.47
2022-09-11T18:26:50.105Z,73.82
2022-09-11T18:29:20.062Z,74.75
2022-09-11T18:31:50.180Z,75.64
2022-09-11T18:34:22.349Z,74.80
2022-09-11T18:36:49.855Z,75.75
2022-09-11T18:39:20.461Z,76.02
2022-09-11T18:41:48.551Z,76.06
2022-09-11T18:44:19.850Z,75.71
2022-09-11T18:46:46.689Z,75.34
2022-09-11T18:49:14.531Z,75.48
2022-09-11T18:51:42.258Z,75.79
2022-09-11T18:54:21.028Z,76.67
2022-09-11T18:56:49.255Z,76.45
2022-09-11T18:59:16.310Z,76.41
2022-09-11T19:01:42.975Z,76.61
2022-09-11T19:04:10.973Z,77.24
2022-09-11T19:06:40.897Z,78.83
2022-09-11T19:12:05.461Z,79.19
2022-09-11T19:14:32.695Z,79.45
2022-09-11T19:17:00.354Z,79.80
2022-09-11T19:19:27.335Z,78.30
2022-09-11T19:21:53.846Z,80.12
2022-09-11T19:24:20.322Z,79.72
2022-09-11T19:26:46.838Z,79.83
2022-09-11T19:29:17.561Z,79.46
2022-09-11T19:31:44.290Z,79.85
2022-09-11T19:34:12.009Z,79.86
2022-09-11T19:36:38.839Z,80.58
2022-09-11T19:39:05.926Z,80.83
2022-09-11T19:41:34.814Z,81.07
2022-09-11T19:44:03.101Z,82.61
2022-09-11T19:46:32.793Z,81.35
2022-09-11T19:49:02.842Z,81.43
2022-09-11T19:51:31.174Z,81.82
2022-09-11T19:54:00.399Z,81.49
2022-09-11T19:56:28.029Z,82.25
2022-09-11T19:58:55.026Z,81.30
2022-09-11T20:01:23.274Z,82.13
2022-09-11T20:03:53.036Z,82.94
2022-09-11T20:06:21.985Z,81.93
2022-09-11T20:08:49.233Z,82.18
2022-09-11T20:11:18.978Z,82.99
2022-09-11T20:13:48.474Z,83.27
2022-09-11T20:16:18.049Z,83.70
2022-09-11T20:18:44.717Z,83.62
2022-09-11T20:21:16.078Z,83.62
2022-09-11T20:23:43.808Z,84.37
2022-09-11T20:26:19.009Z,84.70
2022-09-11T20:28:54.209Z,84.78
2022-09-11T20:31:22.980Z,84.33
2022-09-11T20:33:50.114Z,85.54
2022-09-11T20:36:17.197Z,85.79
2022-09-11T20:38:47.159Z,85.54
2022-09-11T20:41:14.705Z,85.72
2022-09-11T20:43:41.915Z,85.22
2022-09-11T20:46:09.179Z,85.23
2022-09-11T20:48:35.977Z,84.42
2022-09-11T20:51:08.126Z,85.48
2022-09-11T20:53:34.893Z,86.62
2022-09-11T20:56:09.170Z,86.53
2022-09-11T20:58:36.268Z,85.66
2022-09-11T21:01:03.501Z,86.50
2022-09-11T21:03:31.219Z,86.48
2022-09-11T21:05:58.330Z,86.92
2022-09-11T21:08:27.721Z,86.67
2022-09-11T21:10:54.142Z,86.18
2022-09-11T21:13:20.602Z,86.55
2022-09-11T21:15:48.187Z,86.74
2022-09-11T21:18:15.041Z,87.97
2022-09-11T21:20:41.853Z,87.36
2022-09-11T21:23:08.435Z,86.86
2022-09-11T21:25:39.833Z,86.49
2022-09-11T21:28:06.463Z,85.93
2022-09-11T21:30:33.234Z,84.68
2022-09-11T21:32:59.720Z,85.75
2022-09-11T21:35:26.307Z,86.03
2022-09-11T21:37:52.771Z,86.76
2022-09-11T21:40:19.280Z,86.73
2022-09-11T21:42:46.075Z,85.84
2022-09-11T21:45:14.635Z,86.64
2022-09-11T21:47:41.140Z,87.16
2022-09-11T21:50:08.314Z,87.20
2022-09-11T21:52:35.065Z,87.57
2022-09-11T21:55:01.539Z,87.76
2022-09-11T21:57:28.896Z,86.11
2022-09-11T21:59:58.906Z,86.33
2022-09-11T22:02:26.293Z,86.72
2022-09-11T22:04:53.305Z,87.41
2022-09-11T22:07:20.081Z,87.42
2022-09-11T22:09:48.040Z,87.09
2022-09-11T22:12:15.313Z,87.25
2022-09-11T22:14:44.278Z,87.25
2022-09-11T22:17:11.861Z,87.08
2022-09-11T22:19:38.418Z,87.47
2022-09-11T22:22:05.065Z,87.90
2022-09-11T22:24:31.695Z,86.18
2022-09-11T22:26:58.194Z,84.99
2022-09-11T22:29:27.723Z,86.21
2022-09-11T22:31:54.469Z,86.96
2022-09-11T22:34:21.319Z,87.60
2022-09-11T22:36:47.975Z,88.36
2022-09-11T22:39:15.419Z,88.40
2022-09-11T22:41:42.025Z,87.81
2022-09-11T22:44:10.509Z,88.37
2022-09-11T22:46:37.077Z,86.90
2022-09-11T22:49:03.800Z,86.93
2022-09-11T22:51:33.954Z,87.79
2022-09-11T22:54:04.727Z,88.42
2022-09-11T22:56:32.082Z,88.22
2022-09-11T22:58:58.782Z,88.03
2022-09-11T23:01:25.900Z,87.94
2022-09-11T23:03:53.254Z,86.20
2022-09-11T23:06:38.218Z,86.87
2022-09-11T23:09:07.182Z,86.71
2022-09-11T23:11:33.630Z,86.71
2022-09-11T23:14:00.289Z,86.60
2022-09-11T23:16:28.339Z,86.72
2022-09-11T23:18:56.227Z,87.02
2022-09-11T23:21:23.893Z,87.95
2022-09-11T23:23:55.453Z,88.04
2022-09-11T23:26:23.796Z,88.05
2022-09-11T23:28:50.642Z,88.22
2022-09-11T23:31:20.270Z,88.60
2022-09-11T23:33:47.643Z,88.96
2022-09-11T23:36:15.391Z,89.10
2022-09-11T23:38:48.609Z,87.97
2022-09-11T23:41:18.115Z,88.70
2022-09-11T23:43:46.263Z,88.30
2022-09-11T23:46:13.691Z,87.17
2022-09-11T23:48:40.559Z,88.24
2022-09-11T23:51:10.489Z,88.39
2022-09-11T23:53:39.029Z,88.22
2022-09-11T23:56:08.156Z,88.57
2022-09-11T23:58:37.908Z,88.41
